sensor_id;sensor_type;location;lat;lon;timestamp;noise_LAeq;noise_LA_min;noise_LA_max;noise_LA01;noise_LA95
69605;Laerm;56811;52.220;4.668;2022-07-22T00:00:06;30.10;28.53;33.17;;
69605;Laerm;56811;52.220;4.668;2022-07-22T00:00:17;29.86;28.17;37.65;;
69605;Laerm;56811;52.220;4.668;2022-07-22T00:00:27;29.59;27.94;37.66;;
69605;Laerm;56811;52.220;4.668;2022-07-22T00:00:38;29.51;27.90;31.09;;
69605;Laerm;56811;52.220;4.668;2022-07-22T00:00:48;31.57;28.41;45.28;;
69605;Laerm;56811;52.220;4.668;2022-07-22T00:00:58;30.27;28.40;32.21;;
69605;Laerm;56811;52.220;4.668;2022-07-22T00:01:09;30.90;29.14;33.18;;
69605;Laerm;56811;52.220;4.668;2022-07-22T00:01:19;30.61;28.93;32.40;;
69605;Laerm;56811;52.220;4.668;2022-07-22T00:01:29;31.39;28.16;35.64;;
69605;Laerm;56811;52.220;4.668;2022-07-22T00:01:40;32.03;29.74;35.58;;
69605;Laerm;56811;52.220;4.668;2022-07-22T00:01:50;31.81;29.83;34.61;;
69605;Laerm;56811;52.220;4.668;2022-07-22T00:02:00;32.08;30.02;34.62;;
69605;Laerm;56811;52.220;4.668;2022-07-22T00:02:11;31.98;29.69;37.94;;
69605;Laerm;56811;52.220;4.668;2022-07-22T00:02:21;32.92;30.06;39.24;;
69605;Laerm;56811;52.220;4.668;2022-07-22T00:02:31;31.70;29.54;35.51;;
69605;Laerm;56811;52.220;4.668;2022-07-22T00:02:42;31.31;29.35;35.85;;
69605;Laerm;56811;52.220;4.668;2022-07-22T00:02:52;30.63;29.00;32.82;;
69605;Laerm;56811;52.220;4.668;2022-07-22T00:03:03;30.58;28.39;45.23;;
69605;Laerm;56811;52.220;4.668;2022-07-22T00:03:13;30.33;28.49;31.85;;
69605;Laerm;56811;52.220;4.668;2022-07-22T00:03:24;30.73;29.13;32.77;;
69605;Laerm;56811;52.220;4.668;2022-07-22T00:03:34;30.30;28.78;32.75;;
69605;Laerm;56811;52.220;4.668;2022-07-22T00:03:44;29.99;28.49;34.88;;
69605;Laerm;56811;52.220;4.668;2022-07-22T00:03:55;29.87;28.52;31.58;;
69605;Laerm;56811;52.220;4.668;2022-07-22T00:04:05;30.32;28.70;31.94;;
69605;Laerm;56811;52.220;4.668;2022-07-22T00:04:15;30.28;28.74;32.69;;
69605;Laerm;56811;52.220;4.668;2022-07-22T00:04:26;30.55;28.38;34.37;;
69605;Laerm;56811;52.220;4.668;2022-07-22T00:04:37;29.99;28.56;31.74;;
69605;Laerm;56811;52.220;4.668;2022-07-22T00:04:47;30.21;29.02;31.69;;
69605;Laerm;56811;52.220;4.668;2022-07-22T00:04:58;31.97;28.69;36.21;;
69605;Laerm;56811;52.220;4.668;2022-07-22T00:05:08;32.51;30.60;34.93;;
69605;Laerm;56811;52.220;4.668;2022-07-22T00:05:20;33.07;30.61;35.26;;
69605;Laerm;56811;52.220;4.668;2022-07-22T00:05:31;30.88;29.60;32.95;;
69605;Laerm;56811;52.220;4.668;2022-07-22T00:05:41;30.53;29.07;32.55;;
69605;Laerm;56811;52.220;4.668;2022-07-22T00:05:51;30.50;28.56;36.82;;
69605;Laerm;56811;52.220;4.668;2022-07-22T00:06:02;30.27;29.03;31.37;;
69605;Laerm;56811;52.220;4.668;2022-07-22T00:06:12;30.07;28.71;31.45;;
69605;Laerm;56811;52.220;4.668;2022-07-22T00:06:23;29.82;28.43;31.71;;
69605;Laerm;56811;52.220;4.668;2022-07-22T00:06:33;29.80;27.99;31.34;;
69605;Laerm;56811;52.220;4.668;2022-07-22T00:06:43;29.97;28.66;31.89;;
69605;Laerm;56811;52.220;4.668;2022-07-22T00:06:54;30.03;28.53;31.93;;
69605;Laerm;56811;52.220;4.668;2022-07-22T00:07:04;30.07;28.55;31.64;;
69605;Laerm;56811;52.220;4.668;2022-07-22T00:07:14;29.90;28.42;32.39;;
69605;Laerm;56811;52.220;4.668;2022-07-22T00:07:25;30.12;28.78;32.46;;
69605;Laerm;56811;52.220;4.668;2022-07-22T00:07:35;30.29;28.73;32.09;;
69605;Laerm;56811;52.220;4.668;2022-07-22T00:07:45;30.75;28.85;33.25;;
69605;Laerm;56811;52.220;4.668;2022-07-22T00:07:56;30.65;28.93;34.44;;
69605;Laerm;56811;52.220;4.668;2022-07-22T00:08:06;30.79;29.40;32.46;;
69605;Laerm;56811;52.220;4.668;2022-07-22T00:08:17;31.36;29.47;34.33;;
69605;Laerm;56811;52.220;4.668;2022-07-22T00:08:27;31.29;29.15;33.60;;
69605;Laerm;56811;52.220;4.668;2022-07-22T00:08:38;31.41;29.55;34.43;;
69605;Laerm;56811;52.220;4.668;2022-07-22T00:08:48;33.14;29.80;37.86;;
69605;Laerm;56811;52.220;4.668;2022-07-22T00:08:58;34.65;31.07;41.21;;
69605;Laerm;56811;52.220;4.668;2022-07-22T00:09:08;34.23;31.50;36.85;;
69605;Laerm;56811;52.220;4.668;2022-07-22T00:09:19;33.40;30.45;38.74;;
69605;Laerm;56811;52.220;4.668;2022-07-22T00:09:29;33.03;29.44;38.96;;
69605;Laerm;56811;52.220;4.668;2022-07-22T00:09:40;32.78;29.90;37.37;;
69605;Laerm;56811;52.220;4.668;2022-07-22T00:09:50;31.18;29.67;34.31;;
69605;Laerm;56811;52.220;4.668;2022-07-22T00:10:00;30.73;28.92;32.13;;
69605;Laerm;56811;52.220;4.668;2022-07-22T00:10:11;30.44;28.46;34.96;;
69605;Laerm;56811;52.220;4.668;2022-07-22T00:10:21;30.78;29.27;33.04;;
69605;Laerm;56811;52.220;4.668;2022-07-22T00:10:31;30.47;29.01;32.14;;
69605;Laerm;56811;52.220;4.668;2022-07-22T00:10:42;30.63;29.07;33.07;;
69605;Laerm;56811;52.220;4.668;2022-07-22T00:10:52;30.54;29.05;32.18;;
69605;Laerm;56811;52.220;4.668;2022-07-22T00:11:03;30.42;28.94;32.82;;
69605;Laerm;56811;52.220;4.668;2022-07-22T00:11:13;30.13;28.65;31.47;;
69605;Laerm;56811;52.220;4.668;2022-07-22T00:11:24;29.90;28.63;31.90;;
69605;Laerm;56811;52.220;4.668;2022-07-22T00:11:34;30.48;28.85;31.88;;
69605;Laerm;56811;52.220;4.668;2022-07-22T00:11:45;31.18;29.61;32.66;;
69605;Laerm;56811;52.220;4.668;2022-07-22T00:11:55;31.40;29.13;33.41;;
69605;Laerm;56811;52.220;4.668;2022-07-22T00:12:05;31.63;29.33;34.53;;
69605;Laerm;56811;52.220;4.668;2022-07-22T00:12:16;31.08;29.63;32.84;;
69605;Laerm;56811;52.220;4.668;2022-07-22T00:12:26;30.82;29.35;32.53;;
69605;Laerm;56811;52.220;4.668;2022-07-22T00:12:37;30.71;29.31;32.34;;
69605;Laerm;56811;52.220;4.668;2022-07-22T00:12:48;30.30;29.16;31.89;;
69605;Laerm;56811;52.220;4.668;2022-07-22T00:12:58;30.18;28.77;31.81;;
69605;Laerm;56811;52.220;4.668;2022-07-22T00:13:08;30.21;28.78;32.95;;
69605;Laerm;56811;52.220;4.668;2022-07-22T00:13:19;30.24;28.36;31.67;;
69605;Laerm;56811;52.220;4.668;2022-07-22T00:13:29;30.00;28.88;31.60;;
69605;Laerm;56811;52.220;4.668;2022-07-22T00:13:39;30.14;28.68;32.51;;
69605;Laerm;56811;52.220;4.668;2022-07-22T00:13:50;30.06;28.64;31.73;;
69605;Laerm;56811;52.220;4.668;2022-07-22T00:14:00;29.76;28.23;41.46;;
69605;Laerm;56811;52.220;4.668;2022-07-22T00:14:10;30.02;28.49;32.38;;
69605;Laerm;56811;52.220;4.668;2022-07-22T00:14:23;31.16;29.10;35.55;;
69605;Laerm;56811;52.220;4.668;2022-07-22T00:14:33;30.44;28.78;32.73;;
69605;Laerm;56811;52.220;4.668;2022-07-22T00:14:43;30.67;28.69;33.90;;
69605;Laerm;56811;52.220;4.668;2022-07-22T00:14:54;34.16;29.80;38.10;;
69605;Laerm;56811;52.220;4.668;2022-07-22T00:15:04;33.90;30.81;40.34;;
69605;Laerm;56811;52.220;4.668;2022-07-22T00:15:15;33.23;28.84;36.76;;
69605;Laerm;56811;52.220;4.668;2022-07-22T00:15:25;32.53;28.93;37.98;;
69605;Laerm;56811;52.220;4.668;2022-07-22T00:15:36;32.93;30.09;36.36;;
69605;Laerm;56811;52.220;4.668;2022-07-22T00:15:46;31.24;29.34;33.20;;
69605;Laerm;56811;52.220;4.668;2022-07-22T00:15:56;31.22;29.00;34.13;;
69605;Laerm;56811;52.220;4.668;2022-07-22T00:16:07;32.60;28.92;48.24;;
69605;Laerm;56811;52.220;4.668;2022-07-22T00:16:17;30.30;28.68;32.23;;
69605;Laerm;56811;52.220;4.668;2022-07-22T00:16:27;30.22;28.96;34.40;;
69605;Laerm;56811;52.220;4.668;2022-07-22T00:16:38;30.00;28.32;31.77;;
69605;Laerm;56811;52.220;4.668;2022-07-22T00:16:48;30.45;29.03;33.92;;
69605;Laerm;56811;52.220;4.668;2022-07-22T00:16:59;30.52;28.51;36.11;;
69605;Laerm;56811;52.220;4.668;2022-07-22T00:17:09;29.84;28.19;31.24;;
69605;Laerm;56811;52.220;4.668;2022-07-22T00:17:19;29.86;28.23;32.94;;
69605;Laerm;56811;52.220;4.668;2022-07-22T00:17:30;29.97;28.62;32.25;;
69605;Laerm;56811;52.220;4.668;2022-07-22T00:17:40;30.70;28.90;33.40;;
69605;Laerm;56811;52.220;4.668;2022-07-22T00:17:51;31.34;28.97;34.59;;
69605;Laerm;56811;52.220;4.668;2022-07-22T00:18:01;31.26;29.00;36.21;;
69605;Laerm;56811;52.220;4.668;2022-07-22T00:18:11;29.90;28.32;36.45;;
69605;Laerm;56811;52.220;4.668;2022-07-22T00:18:22;31.11;28.93;34.19;;
69605;Laerm;56811;52.220;4.668;2022-07-22T00:18:32;31.42;29.23;33.34;;
69605;Laerm;56811;52.220;4.668;2022-07-22T00:18:43;31.05;29.12;35.82;;
69605;Laerm;56811;52.220;4.668;2022-07-22T00:18:53;31.21;29.28;35.87;;
69605;Laerm;56811;52.220;4.668;2022-07-22T00:19:03;30.55;29.11;39.14;;
69605;Laerm;56811;52.220;4.668;2022-07-22T00:19:14;29.60;27.93;31.33;;
69605;Laerm;56811;52.220;4.668;2022-07-22T00:19:24;29.55;28.23;32.79;;
69605;Laerm;56811;52.220;4.668;2022-07-22T00:19:35;29.72;28.06;31.19;;
69605;Laerm;56811;52.220;4.668;2022-07-22T00:19:45;29.47;28.15;32.94;;
69605;Laerm;56811;52.220;4.668;2022-07-22T00:19:56;29.33;28.08;31.02;;
69605;Laerm;56811;52.220;4.668;2022-07-22T00:20:06;29.35;28.12;37.13;;
69605;Laerm;56811;52.220;4.668;2022-07-22T00:20:17;29.73;28.15;35.28;;
69605;Laerm;56811;52.220;4.668;2022-07-22T00:20:29;29.61;28.08;32.36;;
69605;Laerm;56811;52.220;4.668;2022-07-22T00:20:39;29.62;28.18;31.37;;
69605;Laerm;56811;52.220;4.668;2022-07-22T00:20:49;29.58;28.16;31.59;;
69605;Laerm;56811;52.220;4.668;2022-07-22T00:21:00;29.88;28.44;31.91;;
69605;Laerm;56811;52.220;4.668;2022-07-22T00:21:10;30.47;28.66;34.67;;
69605;Laerm;56811;52.220;4.668;2022-07-22T00:21:21;30.72;28.75;42.15;;
69605;Laerm;56811;52.220;4.668;2022-07-22T00:21:31;29.75;28.34;31.44;;
69605;Laerm;56811;52.220;4.668;2022-07-22T00:21:41;30.21;28.23;33.73;;
69605;Laerm;56811;52.220;4.668;2022-07-22T00:21:52;30.25;28.76;36.35;;
69605;Laerm;56811;52.220;4.668;2022-07-22T00:22:03;30.56;28.52;33.92;;
69605;Laerm;56811;52.220;4.668;2022-07-22T00:22:13;30.45;28.53;34.52;;
69605;Laerm;56811;52.220;4.668;2022-07-22T00:22:23;30.70;28.33;36.27;;
69605;Laerm;56811;52.220;4.668;2022-07-22T00:22:34;30.59;28.02;37.36;;
69605;Laerm;56811;52.220;4.668;2022-07-22T00:22:44;30.61;27.77;38.42;;
69605;Laerm;56811;52.220;4.668;2022-07-22T00:22:54;29.87;27.99;32.81;;
69605;Laerm;56811;52.220;4.668;2022-07-22T00:23:05;29.33;27.74;31.31;;
69605;Laerm;56811;52.220;4.668;2022-07-22T00:23:15;29.81;28.13;35.61;;
69605;Laerm;56811;52.220;4.668;2022-07-22T00:23:25;30.39;27.74;35.67;;
69605;Laerm;56811;52.220;4.668;2022-07-22T00:23:36;29.60;28.00;33.65;;
69605;Laerm;56811;52.220;4.668;2022-07-22T00:23:46;30.12;28.41;32.90;;
69605;Laerm;56811;52.220;4.668;2022-07-22T00:23:56;29.93;27.83;33.36;;
69605;Laerm;56811;52.220;4.668;2022-07-22T00:24:07;30.10;27.92;34.10;;
69605;Laerm;56811;52.220;4.668;2022-07-22T00:24:17;29.37;27.94;31.17;;
69605;Laerm;56811;52.220;4.668;2022-07-22T00:24:27;29.90;28.18;34.12;;
69605;Laerm;56811;52.220;4.668;2022-07-22T00:24:38;29.28;27.80;32.45;;
69605;Laerm;56811;52.220;4.668;2022-07-22T00:24:48;29.66;28.41;31.59;;
69605;Laerm;56811;52.220;4.668;2022-07-22T00:24:59;29.60;27.34;35.11;;
69605;Laerm;56811;52.220;4.668;2022-07-22T00:25:09;29.22;27.90;32.95;;
69605;Laerm;56811;52.220;4.668;2022-07-22T00:25:19;29.03;27.77;31.84;;
69605;Laerm;56811;52.220;4.668;2022-07-22T00:25:30;29.43;27.80;32.88;;
69605;Laerm;56811;52.220;4.668;2022-07-22T00:25:40;29.11;28.09;32.17;;
69605;Laerm;56811;52.220;4.668;2022-07-22T00:25:51;29.22;27.76;31.52;;
69605;Laerm;56811;52.220;4.668;2022-07-22T00:26:01;29.91;28.15;31.84;;
69605;Laerm;56811;52.220;4.668;2022-07-22T00:26:12;30.84;28.46;33.56;;
69605;Laerm;56811;52.220;4.668;2022-07-22T00:26:22;32.48;29.91;36.23;;
69605;Laerm;56811;52.220;4.668;2022-07-22T00:26:33;33.67;29.47;38.67;;
69605;Laerm;56811;52.220;4.668;2022-07-22T00:26:43;32.37;29.41;38.49;;
69605;Laerm;56811;52.220;4.668;2022-07-22T00:26:54;31.98;29.28;35.47;;
69605;Laerm;56811;52.220;4.668;2022-07-22T00:27:04;31.63;29.50;34.48;;
69605;Laerm;56811;52.220;4.668;2022-07-22T00:27:15;30.47;28.77;33.15;;
69605;Laerm;56811;52.220;4.668;2022-07-22T00:27:25;31.62;29.75;34.20;;
69605;Laerm;56811;52.220;4.668;2022-07-22T00:27:35;32.01;29.77;35.15;;
69605;Laerm;56811;52.220;4.668;2022-07-22T00:27:46;31.09;28.40;33.89;;
69605;Laerm;56811;52.220;4.668;2022-07-22T00:27:56;30.99;28.97;33.84;;
69605;Laerm;56811;52.220;4.668;2022-07-22T00:28:06;30.71;28.69;34.61;;
69605;Laerm;56811;52.220;4.668;2022-07-22T00:28:16;30.44;28.78;33.34;;
69605;Laerm;56811;52.220;4.668;2022-07-22T00:28:27;30.22;28.09;32.06;;
69605;Laerm;56811;52.220;4.668;2022-07-22T00:28:37;29.83;28.43;32.13;;
69605;Laerm;56811;52.220;4.668;2022-07-22T00:28:47;30.64;28.83;33.53;;
69605;Laerm;56811;52.220;4.668;2022-07-22T00:28:58;30.85;28.62;33.09;;
69605;Laerm;56811;52.220;4.668;2022-07-22T00:29:08;31.27;29.44;33.93;;
69605;Laerm;56811;52.220;4.668;2022-07-22T00:29:18;31.38;29.23;33.72;;
69605;Laerm;56811;52.220;4.668;2022-07-22T00:29:29;31.18;29.06;33.53;;
69605;Laerm;56811;52.220;4.668;2022-07-22T00:29:39;30.82;29.15;33.77;;
69605;Laerm;56811;52.220;4.668;2022-07-22T00:29:49;31.05;28.88;33.62;;
69605;Laerm;56811;52.220;4.668;2022-07-22T00:30:00;31.14;29.09;37.79;;
69605;Laerm;56811;52.220;4.668;2022-07-22T00:30:10;30.94;29.24;33.88;;
69605;Laerm;56811;52.220;4.668;2022-07-22T00:30:21;30.31;28.50;32.74;;
69605;Laerm;56811;52.220;4.668;2022-07-22T00:30:31;30.51;28.43;33.16;;
69605;Laerm;56811;52.220;4.668;2022-07-22T00:30:41;30.20;28.69;32.70;;
69605;Laerm;56811;52.220;4.668;2022-07-22T00:30:52;30.17;28.29;32.23;;
69605;Laerm;56811;52.220;4.668;2022-07-22T00:31:02;30.11;28.15;35.36;;
69605;Laerm;56811;52.220;4.668;2022-07-22T00:31:13;29.91;28.29;31.74;;
69605;Laerm;56811;52.220;4.668;2022-07-22T00:31:23;30.22;28.84;31.84;;
69605;Laerm;56811;52.220;4.668;2022-07-22T00:31:33;30.97;28.79;34.42;;
69605;Laerm;56811;52.220;4.668;2022-07-22T00:31:44;30.68;28.39;34.04;;
69605;Laerm;56811;52.220;4.668;2022-07-22T00:31:54;29.81;28.16;30.97;;
69605;Laerm;56811;52.220;4.668;2022-07-22T00:32:04;30.47;28.49;38.48;;
69605;Laerm;56811;52.220;4.668;2022-07-22T00:32:15;29.88;28.29;32.27;;
69605;Laerm;56811;52.220;4.668;2022-07-22T00:32:25;29.77;28.38;31.67;;
69605;Laerm;56811;52.220;4.668;2022-07-22T00:32:35;30.17;28.41;31.98;;
69605;Laerm;56811;52.220;4.668;2022-07-22T00:32:46;30.29;28.72;31.95;;
69605;Laerm;56811;52.220;4.668;2022-07-22T00:32:56;31.49;29.23;38.28;;
69605;Laerm;56811;52.220;4.668;2022-07-22T00:33:06;30.75;29.36;33.85;;
69605;Laerm;56811;52.220;4.668;2022-07-22T00:33:17;30.58;28.83;33.79;;
69605;Laerm;56811;52.220;4.668;2022-07-22T00:33:27;30.58;28.91;33.95;;
69605;Laerm;56811;52.220;4.668;2022-07-22T00:33:37;30.24;28.56;32.82;;
69605;Laerm;56811;52.220;4.668;2022-07-22T00:33:48;30.44;28.47;32.04;;
69605;Laerm;56811;52.220;4.668;2022-07-22T00:33:58;30.99;28.72;36.54;;
69605;Laerm;56811;52.220;4.668;2022-07-22T00:34:11;29.81;28.14;31.39;;
69605;Laerm;56811;52.220;4.668;2022-07-22T00:34:21;30.21;28.72;32.24;;
69605;Laerm;56811;52.220;4.668;2022-07-22T00:34:31;30.90;28.86;32.95;;
69605;Laerm;56811;52.220;4.668;2022-07-22T00:34:42;30.69;28.50;33.34;;
69605;Laerm;56811;52.220;4.668;2022-07-22T00:34:52;29.76;28.28;31.66;;
69605;Laerm;56811;52.220;4.668;2022-07-22T00:35:02;30.82;28.23;34.25;;
69605;Laerm;56811;52.220;4.668;2022-07-22T00:35:13;30.17;28.43;32.81;;
69605;Laerm;56811;52.220;4.668;2022-07-22T00:35:23;29.57;28.27;32.22;;
69605;Laerm;56811;52.220;4.668;2022-07-22T00:35:34;29.92;28.46;33.21;;
69605;Laerm;56811;52.220;4.668;2022-07-22T00:35:44;29.81;28.42;31.90;;
69605;Laerm;56811;52.220;4.668;2022-07-22T00:36:00;29.76;28.52;33.23;;
69605;Laerm;56811;52.220;4.668;2022-07-22T00:36:10;29.84;28.27;34.52;;
69605;Laerm;56811;52.220;4.668;2022-07-22T00:36:21;29.97;28.26;31.12;;
69605;Laerm;56811;52.220;4.668;2022-07-22T00:36:31;30.70;28.64;33.30;;
69605;Laerm;56811;52.220;4.668;2022-07-22T00:36:42;30.33;28.54;32.23;;
69605;Laerm;56811;52.220;4.668;2022-07-22T00:36:52;30.06;28.47;32.28;;
69605;Laerm;56811;52.220;4.668;2022-07-22T00:37:02;30.25;29.14;31.73;;
69605;Laerm;56811;52.220;4.668;2022-07-22T00:37:15;30.00;28.49;32.22;;
69605;Laerm;56811;52.220;4.668;2022-07-22T00:37:25;30.20;28.03;33.85;;
69605;Laerm;56811;52.220;4.668;2022-07-22T00:37:35;30.05;28.70;31.73;;
69605;Laerm;56811;52.220;4.668;2022-07-22T00:37:46;30.52;28.86;32.63;;
69605;Laerm;56811;52.220;4.668;2022-07-22T00:37:56;30.27;28.99;31.97;;
69605;Laerm;56811;52.220;4.668;2022-07-22T00:38:06;30.27;28.87;31.80;;
69605;Laerm;56811;52.220;4.668;2022-07-22T00:38:17;30.30;28.57;33.85;;
69605;Laerm;56811;52.220;4.668;2022-07-22T00:38:27;30.69;29.02;33.98;;
69605;Laerm;56811;52.220;4.668;2022-07-22T00:38:37;30.10;28.67;32.05;;
69605;Laerm;56811;52.220;4.668;2022-07-22T00:38:48;29.99;28.76;31.59;;
69605;Laerm;56811;52.220;4.668;2022-07-22T00:38:58;29.97;28.37;31.81;;
69605;Laerm;56811;52.220;4.668;2022-07-22T00:39:09;30.27;29.04;32.39;;
69605;Laerm;56811;52.220;4.668;2022-07-22T00:39:19;30.44;29.01;32.17;;
69605;Laerm;56811;52.220;4.668;2022-07-22T00:39:32;30.20;28.58;32.24;;
69605;Laerm;56811;52.220;4.668;2022-07-22T00:39:42;30.28;28.49;32.44;;
69605;Laerm;56811;52.220;4.668;2022-07-22T00:39:52;31.09;29.53;33.24;;
69605;Laerm;56811;52.220;4.668;2022-07-22T00:40:03;30.63;28.93;32.15;;
69605;Laerm;56811;52.220;4.668;2022-07-22T00:40:14;30.87;29.37;34.15;;
69605;Laerm;56811;52.220;4.668;2022-07-22T00:40:24;30.94;29.50;32.59;;
69605;Laerm;56811;52.220;4.668;2022-07-22T00:40:34;30.56;28.98;32.59;;
69605;Laerm;56811;52.220;4.668;2022-07-22T00:40:45;30.62;28.69;32.74;;
69605;Laerm;56811;52.220;4.668;2022-07-22T00:40:55;30.16;28.94;35.35;;
69605;Laerm;56811;52.220;4.668;2022-07-22T00:41:06;29.94;28.44;31.32;;
69605;Laerm;56811;52.220;4.668;2022-07-22T00:41:16;30.25;28.85;31.71;;
69605;Laerm;56811;52.220;4.668;2022-07-22T00:41:26;30.69;29.10;34.26;;
69605;Laerm;56811;52.220;4.668;2022-07-22T00:41:37;30.32;28.99;32.11;;
69605;Laerm;56811;52.220;4.668;2022-07-22T00:41:47;30.93;29.20;35.72;;
69605;Laerm;56811;52.220;4.668;2022-07-22T00:41:58;31.52;29.47;40.31;;
69605;Laerm;56811;52.220;4.668;2022-07-22T00:42:08;30.74;29.29;32.88;;
69605;Laerm;56811;52.220;4.668;2022-07-22T00:42:19;30.86;29.03;32.89;;
69605;Laerm;56811;52.220;4.668;2022-07-22T00:42:29;30.13;28.77;31.68;;
69605;Laerm;56811;52.220;4.668;2022-07-22T00:42:39;30.58;28.65;34.12;;
69605;Laerm;56811;52.220;4.668;2022-07-22T00:42:50;30.25;28.70;31.81;;
69605;Laerm;56811;52.220;4.668;2022-07-22T00:43:00;30.45;28.94;32.29;;
69605;Laerm;56811;52.220;4.668;2022-07-22T00:43:11;30.87;28.87;32.71;;
69605;Laerm;56811;52.220;4.668;2022-07-22T00:43:21;31.12;29.21;35.86;;
69605;Laerm;56811;52.220;4.668;2022-07-22T00:44:05;31.14;29.49;34.60;;
69605;Laerm;56811;52.220;4.668;2022-07-22T00:44:15;30.64;29.02;32.79;;
69605;Laerm;56811;52.220;4.668;2022-07-22T00:44:25;30.76;29.17;32.57;;
69605;Laerm;56811;52.220;4.668;2022-07-22T00:44:36;30.89;28.71;32.64;;
69605;Laerm;56811;52.220;4.668;2022-07-22T00:44:46;30.83;29.28;32.42;;
69605;Laerm;56811;52.220;4.668;2022-07-22T00:44:57;30.88;29.48;32.13;;
69605;Laerm;56811;52.220;4.668;2022-07-22T00:45:07;31.05;29.64;36.01;;
69605;Laerm;56811;52.220;4.668;2022-07-22T00:45:18;31.48;29.74;36.44;;
69605;Laerm;56811;52.220;4.668;2022-07-22T00:45:29;31.01;29.55;33.48;;
69605;Laerm;56811;52.220;4.668;2022-07-22T00:45:39;30.36;28.94;31.81;;
69605;Laerm;56811;52.220;4.668;2022-07-22T00:45:50;30.96;29.32;35.57;;
69605;Laerm;56811;52.220;4.668;2022-07-22T00:46:00;30.55;29.09;34.19;;
69605;Laerm;56811;52.220;4.668;2022-07-22T00:46:11;30.15;28.82;31.44;;
69605;Laerm;56811;52.220;4.668;2022-07-22T00:46:21;30.18;28.96;32.04;;
69605;Laerm;56811;52.220;4.668;2022-07-22T00:46:32;30.39;29.04;31.97;;
69605;Laerm;56811;52.220;4.668;2022-07-22T00:46:42;30.35;28.60;34.41;;
69605;Laerm;56811;52.220;4.668;2022-07-22T00:46:53;30.72;28.72;32.20;;
69605;Laerm;56811;52.220;4.668;2022-07-22T00:47:03;30.78;29.39;34.79;;
69605;Laerm;56811;52.220;4.668;2022-07-22T00:47:14;30.71;28.66;32.55;;
69605;Laerm;56811;52.220;4.668;2022-07-22T00:47:24;30.46;29.01;32.22;;
69605;Laerm;56811;52.220;4.668;2022-07-22T00:47:35;30.92;29.01;34.83;;
69605;Laerm;56811;52.220;4.668;2022-07-22T00:47:45;30.47;28.96;32.88;;
69605;Laerm;56811;52.220;4.668;2022-07-22T00:47:56;30.63;29.03;32.87;;
69605;Laerm;56811;52.220;4.668;2022-07-22T00:48:06;30.68;29.22;32.43;;
69605;Laerm;56811;52.220;4.668;2022-07-22T00:48:16;31.91;29.70;35.69;;
69605;Laerm;56811;52.220;4.668;2022-07-22T00:48:27;32.66;30.25;36.00;;
69605;Laerm;56811;52.220;4.668;2022-07-22T00:48:37;32.50;30.33;36.97;;
69605;Laerm;56811;52.220;4.668;2022-07-22T00:48:47;32.51;30.42;35.23;;
69605;Laerm;56811;52.220;4.668;2022-07-22T00:48:58;34.27;30.85;38.66;;
69605;Laerm;56811;52.220;4.668;2022-07-22T00:49:08;33.49;30.82;37.04;;
69605;Laerm;56811;52.220;4.668;2022-07-22T00:49:19;35.00;31.20;41.68;;
69605;Laerm;56811;52.220;4.668;2022-07-22T00:49:29;33.43;30.66;38.13;;
69605;Laerm;56811;52.220;4.668;2022-07-22T00:49:39;35.20;31.48;41.46;;
69605;Laerm;56811;52.220;4.668;2022-07-22T00:49:49;32.88;30.77;34.53;;
69605;Laerm;56811;52.220;4.668;2022-07-22T00:50:00;32.48;30.15;35.90;;
69605;Laerm;56811;52.220;4.668;2022-07-22T00:50:10;31.74;29.35;33.92;;
69605;Laerm;56811;52.220;4.668;2022-07-22T00:50:21;31.39;29.51;34.45;;
69605;Laerm;56811;52.220;4.668;2022-07-22T00:50:33;31.23;29.70;34.15;;
69605;Laerm;56811;52.220;4.668;2022-07-22T00:50:44;31.84;30.23;33.44;;
69605;Laerm;56811;52.220;4.668;2022-07-22T00:50:55;31.88;29.83;35.67;;
69605;Laerm;56811;52.220;4.668;2022-07-22T00:51:05;31.36;29.60;32.91;;
69605;Laerm;56811;52.220;4.668;2022-07-22T00:51:16;30.91;29.34;32.82;;
69605;Laerm;56811;52.220;4.668;2022-07-22T00:51:27;31.37;29.42;35.67;;
69605;Laerm;56811;52.220;4.668;2022-07-22T00:51:38;33.00;30.43;36.82;;
69605;Laerm;56811;52.220;4.668;2022-07-22T00:51:49;31.67;29.11;35.59;;
69605;Laerm;56811;52.220;4.668;2022-07-22T00:51:59;31.70;29.35;35.04;;
69605;Laerm;56811;52.220;4.668;2022-07-22T00:52:10;31.09;29.27;33.55;;
69605;Laerm;56811;52.220;4.668;2022-07-22T00:52:20;30.96;29.10;34.34;;
69605;Laerm;56811;52.220;4.668;2022-07-22T00:52:32;31.52;29.26;34.37;;
69605;Laerm;56811;52.220;4.668;2022-07-22T00:52:42;31.44;29.87;33.10;;
69605;Laerm;56811;52.220;4.668;2022-07-22T00:52:54;30.73;29.08;33.67;;
69605;Laerm;56811;52.220;4.668;2022-07-22T00:53:04;30.40;28.56;31.70;;
69605;Laerm;56811;52.220;4.668;2022-07-22T00:53:15;30.69;29.08;33.19;;
69605;Laerm;56811;52.220;4.668;2022-07-22T00:53:25;31.13;29.74;32.79;;
69605;Laerm;56811;52.220;4.668;2022-07-22T00:53:36;31.02;29.17;32.77;;
69605;Laerm;56811;52.220;4.668;2022-07-22T00:53:46;33.83;29.51;44.65;;
69605;Laerm;56811;52.220;4.668;2022-07-22T00:53:57;30.64;28.91;33.48;;
69605;Laerm;56811;52.220;4.668;2022-07-22T00:54:08;30.78;29.48;32.47;;
69605;Laerm;56811;52.220;4.668;2022-07-22T00:54:18;30.58;28.92;36.89;;
69605;Laerm;56811;52.220;4.668;2022-07-22T00:54:29;30.50;29.03;32.33;;
69605;Laerm;56811;52.220;4.668;2022-07-22T00:54:40;31.01;29.49;32.49;;
69605;Laerm;56811;52.220;4.668;2022-07-22T00:54:50;30.89;29.52;33.13;;
69605;Laerm;56811;52.220;4.668;2022-07-22T00:55:01;31.18;29.52;33.63;;
69605;Laerm;56811;52.220;4.668;2022-07-22T00:55:11;31.28;29.88;33.89;;
69605;Laerm;56811;52.220;4.668;2022-07-22T00:55:22;30.77;29.13;35.47;;
69605;Laerm;56811;52.220;4.668;2022-07-22T00:55:33;30.55;28.94;33.81;;
69605;Laerm;56811;52.220;4.668;2022-07-22T00:55:43;30.33;28.59;32.47;;
69605;Laerm;56811;52.220;4.668;2022-07-22T00:55:54;30.63;28.47;33.93;;
69605;Laerm;56811;52.220;4.668;2022-07-22T00:56:04;30.61;28.98;34.93;;
69605;Laerm;56811;52.220;4.668;2022-07-22T00:56:15;31.31;29.55;34.92;;
69605;Laerm;56811;52.220;4.668;2022-07-22T00:56:26;32.02;29.87;35.67;;
69605;Laerm;56811;52.220;4.668;2022-07-22T00:56:37;31.57;29.62;35.98;;
69605;Laerm;56811;52.220;4.668;2022-07-22T00:56:48;31.82;29.60;34.57;;
69605;Laerm;56811;52.220;4.668;2022-07-22T00:56:58;31.46;30.06;33.16;;
69605;Laerm;56811;52.220;4.668;2022-07-22T00:57:08;32.29;30.19;35.82;;
69605;Laerm;56811;52.220;4.668;2022-07-22T00:57:19;31.25;29.33;33.01;;
69605;Laerm;56811;52.220;4.668;2022-07-22T00:57:29;31.13;29.66;32.73;;
69605;Laerm;56811;52.220;4.668;2022-07-22T00:57:39;31.48;29.62;33.76;;
69605;Laerm;56811;52.220;4.668;2022-07-22T00:57:50;31.12;29.73;33.07;;
69605;Laerm;56811;52.220;4.668;2022-07-22T00:58:01;31.30;29.51;33.31;;
69605;Laerm;56811;52.220;4.668;2022-07-22T00:58:11;30.98;28.88;32.81;;
69605;Laerm;56811;52.220;4.668;2022-07-22T00:58:21;31.11;29.62;32.81;;
69605;Laerm;56811;52.220;4.668;2022-07-22T00:58:32;31.38;29.48;33.01;;
69605;Laerm;56811;52.220;4.668;2022-07-22T00:58:42;31.91;29.74;34.80;;
69605;Laerm;56811;52.220;4.668;2022-07-22T00:58:53;31.39;29.93;33.44;;
69605;Laerm;56811;52.220;4.668;2022-07-22T00:59:04;31.65;29.97;34.78;;
69605;Laerm;56811;52.220;4.668;2022-07-22T00:59:15;31.87;30.08;34.76;;